sensor_id;sensor_type;location;lat;lon;timestamp;temperature;humidity
76607;DHT22;65498;50.916;4.698;2023-06-10T00:02:29;25.90;45.80
76607;DHT22;65498;50.916;4.698;2023-06-10T00:04:56;25.90;45.30
76607;DHT22;65498;50.916;4.698;2023-06-10T00:07:24;25.90;45.60
76607;DHT22;65498;50.916;4.698;2023-06-10T00:09:52;25.90;45.80
76607;DHT22;65498;50.916;4.698;2023-06-10T00:12:19;25.90;45.30
76607;DHT22;65498;50.916;4.698;2023-06-10T00:14:47;25.90;45.30
76607;DHT22;65498;50.916;4.698;2023-06-10T00:17:16;25.90;45.10
76607;DHT22;65498;50.916;4.698;2023-06-10T00:19:44;26.00;44.20
76607;DHT22;65498;50.916;4.698;2023-06-10T00:22:13;26.00;44.60
76607;DHT22;65498;50.916;4.698;2023-06-10T00:24:41;26.00;44.80
76607;DHT22;65498;50.916;4.698;2023-06-10T00:27:08;26.00;44.50
76607;DHT22;65498;50.916;4.698;2023-06-10T00:29:36;26.00;44.40
76607;DHT22;65498;50.916;4.698;2023-06-10T00:32:06;26.00;44.10
76607;DHT22;65498;50.916;4.698;2023-06-10T00:34:33;25.80;44.40
76607;DHT22;65498;50.916;4.698;2023-06-10T00:37:02;25.80;44.20
76607;DHT22;65498;50.916;4.698;2023-06-10T00:39:30;25.80;44.20
76607;DHT22;65498;50.916;4.698;2023-06-10T00:41:57;25.90;44.00
76607;DHT22;65498;50.916;4.698;2023-06-10T00:44:25;25.90;43.80
76607;DHT22;65498;50.916;4.698;2023-06-10T00:46:52;25.90;43.90
76607;DHT22;65498;50.916;4.698;2023-06-10T00:49:21;25.80;44.00
76607;DHT22;65498;50.916;4.698;2023-06-10T00:51:49;25.80;43.90
76607;DHT22;65498;50.916;4.698;2023-06-10T00:54:18;25.70;43.60
76607;DHT22;65498;50.916;4.698;2023-06-10T00:56:47;25.90;43.30
76607;DHT22;65498;50.916;4.698;2023-06-10T00:59:15;25.90;43.00
76607;DHT22;65498;50.916;4.698;2023-06-10T01:01:42;25.80;43.10
76607;DHT22;65498;50.916;4.698;2023-06-10T01:04:12;25.70;43.50
76607;DHT22;65498;50.916;4.698;2023-06-10T01:09:45;25.70;43.30
76607;DHT22;65498;50.916;4.698;2023-06-10T01:14:44;25.70;43.40
76607;DHT22;65498;50.916;4.698;2023-06-10T01:17:12;25.60;43.20
76607;DHT22;65498;50.916;4.698;2023-06-10T01:19:42;25.60;43.10
76607;DHT22;65498;50.916;4.698;2023-06-10T01:22:10;25.60;43.10
76607;DHT22;65498;50.916;4.698;2023-06-10T01:24:40;25.60;42.80
76607;DHT22;65498;50.916;4.698;2023-06-10T01:27:10;25.70;42.80
76607;DHT22;65498;50.916;4.698;2023-06-10T01:29:45;25.70;42.90
76607;DHT22;65498;50.916;4.698;2023-06-10T01:32:21;25.70;43.00
76607;DHT22;65498;50.916;4.698;2023-06-10T01:34:48;25.70;42.40
76607;DHT22;65498;50.916;4.698;2023-06-10T01:37:18;25.60;43.10
76607;DHT22;65498;50.916;4.698;2023-06-10T01:39:47;25.60;43.00
76607;DHT22;65498;50.916;4.698;2023-06-10T01:42:16;25.50;43.00
76607;DHT22;65498;50.916;4.698;2023-06-10T01:44:44;25.50;42.60
76607;DHT22;65498;50.916;4.698;2023-06-10T01:47:12;25.40;42.70
76607;DHT22;65498;50.916;4.698;2023-06-10T01:49:39;25.40;43.10
76607;DHT22;65498;50.916;4.698;2023-06-10T01:52:07;25.40;42.90
76607;DHT22;65498;50.916;4.698;2023-06-10T01:54:35;25.50;42.60
76607;DHT22;65498;50.916;4.698;2023-06-10T01:57:03;25.50;43.50
76607;DHT22;65498;50.916;4.698;2023-06-10T01:59:32;25.40;43.50
76607;DHT22;65498;50.916;4.698;2023-06-10T02:01:59;25.40;42.60
76607;DHT22;65498;50.916;4.698;2023-06-10T02:04:27;25.50;42.60
76607;DHT22;65498;50.916;4.698;2023-06-10T02:06:54;25.50;42.60
76607;DHT22;65498;50.916;4.698;2023-06-10T02:09:22;25.40;42.50
76607;DHT22;65498;50.916;4.698;2023-06-10T02:11:50;25.50;42.20
76607;DHT22;65498;50.916;4.698;2023-06-10T02:14:18;25.60;42.00
76607;DHT22;65498;50.916;4.698;2023-06-10T02:16:45;25.50;42.00
76607;DHT22;65498;50.916;4.698;2023-06-10T02:19:13;25.50;41.90
76607;DHT22;65498;50.916;4.698;2023-06-10T02:21:41;25.60;41.70
76607;DHT22;65498;50.916;4.698;2023-06-10T02:24:08;25.50;41.80
76607;DHT22;65498;50.916;4.698;2023-06-10T02:26:36;25.50;41.70
76607;DHT22;65498;50.916;4.698;2023-06-10T02:29:03;25.50;42.00
76607;DHT22;65498;50.916;4.698;2023-06-10T02:31:31;25.40;42.00
76607;DHT22;65498;50.916;4.698;2023-06-10T02:34:01;25.30;42.00
76607;DHT22;65498;50.916;4.698;2023-06-10T02:36:29;25.40;41.90
76607;DHT22;65498;50.916;4.698;2023-06-10T02:38:58;25.50;41.30
76607;DHT22;65498;50.916;4.698;2023-06-10T02:41:25;25.50;42.20
76607;DHT22;65498;50.916;4.698;2023-06-10T02:43:53;25.40;41.20
76607;DHT22;65498;50.916;4.698;2023-06-10T02:46:20;25.50;41.30
76607;DHT22;65498;50.916;4.698;2023-06-10T02:48:48;25.60;41.30
76607;DHT22;65498;50.916;4.698;2023-06-10T02:51:17;25.60;41.10
76607;DHT22;65498;50.916;4.698;2023-06-10T02:53:45;25.60;40.90
76607;DHT22;65498;50.916;4.698;2023-06-10T02:56:13;25.60;41.60
76607;DHT22;65498;50.916;4.698;2023-06-10T02:58:41;25.50;41.90
76607;DHT22;65498;50.916;4.698;2023-06-10T03:01:08;25.60;42.00
76607;DHT22;65498;50.916;4.698;2023-06-10T03:03:36;25.50;42.20
76607;DHT22;65498;50.916;4.698;2023-06-10T03:06:06;25.60;42.40
76607;DHT22;65498;50.916;4.698;2023-06-10T03:08:36;25.60;42.50
76607;DHT22;65498;50.916;4.698;2023-06-10T03:11:04;25.50;42.70
76607;DHT22;65498;50.916;4.698;2023-06-10T03:13:32;25.50;42.90
76607;DHT22;65498;50.916;4.698;2023-06-10T03:16:00;25.60;42.90
76607;DHT22;65498;50.916;4.698;2023-06-10T03:18:29;25.60;43.00
76607;DHT22;65498;50.916;4.698;2023-06-10T03:20:56;25.60;43.10
76607;DHT22;65498;50.916;4.698;2023-06-10T03:23:24;25.50;43.30
76607;DHT22;65498;50.916;4.698;2023-06-10T03:25:53;25.50;43.30
76607;DHT22;65498;50.916;4.698;2023-06-10T03:28:21;25.50;43.40
76607;DHT22;65498;50.916;4.698;2023-06-10T03:30:49;25.50;43.60
76607;DHT22;65498;50.916;4.698;2023-06-10T03:33:18;25.50;43.70
76607;DHT22;65498;50.916;4.698;2023-06-10T03:35:46;25.50;43.90
76607;DHT22;65498;50.916;4.698;2023-06-10T03:38:14;25.50;44.80
76607;DHT22;65498;50.916;4.698;2023-06-10T03:40:41;25.40;44.30
76607;DHT22;65498;50.916;4.698;2023-06-10T03:43:09;25.40;44.40
76607;DHT22;65498;50.916;4.698;2023-06-10T03:45:36;25.40;44.50
76607;DHT22;65498;50.916;4.698;2023-06-10T03:48:05;25.40;44.60
76607;DHT22;65498;50.916;4.698;2023-06-10T03:50:35;25.40;44.80
76607;DHT22;65498;50.916;4.698;2023-06-10T03:53:02;25.50;44.70
76607;DHT22;65498;50.916;4.698;2023-06-10T03:55:30;25.40;44.80
76607;DHT22;65498;50.916;4.698;2023-06-10T03:57:58;25.50;44.90
76607;DHT22;65498;50.916;4.698;2023-06-10T04:00:25;25.50;45.10
76607;DHT22;65498;50.916;4.698;2023-06-10T04:02:53;25.50;45.10
76607;DHT22;65498;50.916;4.698;2023-06-10T04:05:22;25.50;45.10
76607;DHT22;65498;50.916;4.698;2023-06-10T04:07:50;25.50;45.30
76607;DHT22;65498;50.916;4.698;2023-06-10T04:10:17;25.50;45.30
76607;DHT22;65498;50.916;4.698;2023-06-10T04:12:45;25.50;45.40
76607;DHT22;65498;50.916;4.698;2023-06-10T04:15:12;25.40;45.40
76607;DHT22;65498;50.916;4.698;2023-06-10T04:17:40;25.40;45.60
76607;DHT22;65498;50.916;4.698;2023-06-10T04:20:08;25.40;45.70
76607;DHT22;65498;50.916;4.698;2023-06-10T04:22:36;25.50;45.70
76607;DHT22;65498;50.916;4.698;2023-06-10T04:25:03;25.40;45.60
76607;DHT22;65498;50.916;4.698;2023-06-10T04:27:31;25.40;45.90
76607;DHT22;65498;50.916;4.698;2023-06-10T04:29:58;25.40;45.80
76607;DHT22;65498;50.916;4.698;2023-06-10T04:32:26;25.40;46.00
76607;DHT22;65498;50.916;4.698;2023-06-10T04:34:53;25.40;46.00
76607;DHT22;65498;50.916;4.698;2023-06-10T04:37:21;25.50;46.20
76607;DHT22;65498;50.916;4.698;2023-06-10T04:39:48;25.50;46.40
76607;DHT22;65498;50.916;4.698;2023-06-10T04:42:16;25.50;46.50
76607;DHT22;65498;50.916;4.698;2023-06-10T04:44:44;25.50;46.50
76607;DHT22;65498;50.916;4.698;2023-06-10T04:47:11;25.50;46.60
76607;DHT22;65498;50.916;4.698;2023-06-10T04:49:39;25.50;46.80
76607;DHT22;65498;50.916;4.698;2023-06-10T04:52:07;25.50;46.70
76607;DHT22;65498;50.916;4.698;2023-06-10T04:54:34;25.50;46.90
76607;DHT22;65498;50.916;4.698;2023-06-10T04:57:02;25.40;47.00
76607;DHT22;65498;50.916;4.698;2023-06-10T04:59:30;25.40;47.10
76607;DHT22;65498;50.916;4.698;2023-06-10T05:01:57;25.40;47.00
76607;DHT22;65498;50.916;4.698;2023-06-10T05:04:25;25.50;46.90
76607;DHT22;65498;50.916;4.698;2023-06-10T05:06:53;25.50;46.90
76607;DHT22;65498;50.916;4.698;2023-06-10T05:09:20;25.50;47.50
76607;DHT22;65498;50.916;4.698;2023-06-10T05:11:48;25.50;47.40
76607;DHT22;65498;50.916;4.698;2023-06-10T05:14:15;25.40;47.70
76607;DHT22;65498;50.916;4.698;2023-06-10T05:16:45;25.50;47.80
76607;DHT22;65498;50.916;4.698;2023-06-10T05:19:12;25.50;47.90
76607;DHT22;65498;50.916;4.698;2023-06-10T05:21:40;25.50;48.00
76607;DHT22;65498;50.916;4.698;2023-06-10T05:24:08;25.50;47.90
76607;DHT22;65498;50.916;4.698;2023-06-10T05:26:36;25.50;47.60
76607;DHT22;65498;50.916;4.698;2023-06-10T05:29:05;25.50;47.50
76607;DHT22;65498;50.916;4.698;2023-06-10T05:31:33;25.50;47.60
76607;DHT22;65498;50.916;4.698;2023-06-10T05:34:01;25.60;47.60
76607;DHT22;65498;50.916;4.698;2023-06-10T05:36:28;25.60;47.50
76607;DHT22;65498;50.916;4.698;2023-06-10T05:38:56;25.60;47.50
76607;DHT22;65498;50.916;4.698;2023-06-10T05:41:23;25.70;47.60
76607;DHT22;65498;50.916;4.698;2023-06-10T05:43:52;25.70;47.60
76607;DHT22;65498;50.916;4.698;2023-06-10T05:46:20;25.70;48.30
76607;DHT22;65498;50.916;4.698;2023-06-10T05:48:47;25.70;47.60
76607;DHT22;65498;50.916;4.698;2023-06-10T05:51:15;25.70;47.60
76607;DHT22;65498;50.916;4.698;2023-06-10T05:53:42;25.80;47.70
76607;DHT22;65498;50.916;4.698;2023-06-10T05:56:13;25.80;47.70
76607;DHT22;65498;50.916;4.698;2023-06-10T05:58:41;25.80;47.60
76607;DHT22;65498;50.916;4.698;2023-06-10T06:01:08;25.80;47.70
76607;DHT22;65498;50.916;4.698;2023-06-10T06:03:36;25.80;47.70
76607;DHT22;65498;50.916;4.698;2023-06-10T06:06:03;25.80;47.70
76607;DHT22;65498;50.916;4.698;2023-06-10T06:08:31;25.90;47.70
76607;DHT22;65498;50.916;4.698;2023-06-10T06:10:59;25.90;47.80
76607;DHT22;65498;50.916;4.698;2023-06-10T06:13:26;25.90;47.80
76607;DHT22;65498;50.916;4.698;2023-06-10T06:15:54;25.90;47.80
76607;DHT22;65498;50.916;4.698;2023-06-10T06:18:21;25.90;47.70
76607;DHT22;65498;50.916;4.698;2023-06-10T06:20:50;25.90;47.80
76607;DHT22;65498;50.916;4.698;2023-06-10T06:23:17;25.90;47.80
76607;DHT22;65498;50.916;4.698;2023-06-10T06:25:45;25.90;47.80
76607;DHT22;65498;50.916;4.698;2023-06-10T06:28:12;26.00;47.90
76607;DHT22;65498;50.916;4.698;2023-06-10T06:30:40;26.00;47.80
76607;DHT22;65498;50.916;4.698;2023-06-10T06:33:07;26.00;47.50
76607;DHT22;65498;50.916;4.698;2023-06-10T06:35:35;26.00;47.90
76607;DHT22;65498;50.916;4.698;2023-06-10T06:38:04;26.00;47.90
76607;DHT22;65498;50.916;4.698;2023-06-10T06:40:32;26.00;47.90
76607;DHT22;65498;50.916;4.698;2023-06-10T06:42:59;26.00;47.90
76607;DHT22;65498;50.916;4.698;2023-06-10T06:45:27;26.00;48.00
76607;DHT22;65498;50.916;4.698;2023-06-10T06:47:54;26.00;48.10
76607;DHT22;65498;50.916;4.698;2023-06-10T06:50:22;26.10;48.60
76607;DHT22;65498;50.916;4.698;2023-06-10T06:52:50;26.00;48.00
76607;DHT22;65498;50.916;4.698;2023-06-10T06:55:17;26.10;48.10
76607;DHT22;65498;50.916;4.698;2023-06-10T06:57:45;26.10;48.00
76607;DHT22;65498;50.916;4.698;2023-06-10T07:00:13;26.10;48.10
76607;DHT22;65498;50.916;4.698;2023-06-10T07:02:41;26.10;48.20
76607;DHT22;65498;50.916;4.698;2023-06-10T07:05:08;26.10;48.20
76607;DHT22;65498;50.916;4.698;2023-06-10T07:07:36;26.10;48.30
76607;DHT22;65498;50.916;4.698;2023-06-10T07:10:04;26.10;48.20
76607;DHT22;65498;50.916;4.698;2023-06-10T07:12:32;26.10;48.20
76607;DHT22;65498;50.916;4.698;2023-06-10T07:14:59;26.20;48.30
76607;DHT22;65498;50.916;4.698;2023-06-10T07:17:27;26.20;48.20
76607;DHT22;65498;50.916;4.698;2023-06-10T07:19:54;26.20;48.40
76607;DHT22;65498;50.916;4.698;2023-06-10T07:22:24;26.10;48.40
76607;DHT22;65498;50.916;4.698;2023-06-10T07:24:51;26.20;48.50
76607;DHT22;65498;50.916;4.698;2023-06-10T07:27:20;26.20;48.40
76607;DHT22;65498;50.916;4.698;2023-06-10T07:29:48;26.20;48.50
76607;DHT22;65498;50.916;4.698;2023-06-10T07:32:15;26.10;48.40
76607;DHT22;65498;50.916;4.698;2023-06-10T07:34:43;26.20;48.50
76607;DHT22;65498;50.916;4.698;2023-06-10T07:37:11;26.20;48.60
76607;DHT22;65498;50.916;4.698;2023-06-10T07:39:38;26.20;48.70
76607;DHT22;65498;50.916;4.698;2023-06-10T07:42:07;26.20;48.60
76607;DHT22;65498;50.916;4.698;2023-06-10T07:44:34;26.20;48.60
76607;DHT22;65498;50.916;4.698;2023-06-10T07:47:02;26.20;48.70
76607;DHT22;65498;50.916;4.698;2023-06-10T07:49:29;26.20;48.70
76607;DHT22;65498;50.916;4.698;2023-06-10T07:51:57;26.20;48.70
76607;DHT22;65498;50.916;4.698;2023-06-10T07:54:25;26.20;48.70
76607;DHT22;65498;50.916;4.698;2023-06-10T07:56:52;26.10;48.70
76607;DHT22;65498;50.916;4.698;2023-06-10T07:59:20;26.10;48.70
76607;DHT22;65498;50.916;4.698;2023-06-10T08:01:47;26.10;48.80
76607;DHT22;65498;50.916;4.698;2023-06-10T08:04:15;26.10;48.90
76607;DHT22;65498;50.916;4.698;2023-06-10T08:06:42;25.90;49.10
76607;DHT22;65498;50.916;4.698;2023-06-10T08:09:10;25.90;49.30
76607;DHT22;65498;50.916;4.698;2023-06-10T08:11:37;25.90;49.20
76607;DHT22;65498;50.916;4.698;2023-06-10T08:14:05;25.90;49.40
76607;DHT22;65498;50.916;4.698;2023-06-10T08:16:32;25.90;49.70
76607;DHT22;65498;50.916;4.698;2023-06-10T08:19:00;25.90;49.50
76607;DHT22;65498;50.916;4.698;2023-06-10T08:21:27;25.80;49.90
76607;DHT22;65498;50.916;4.698;2023-06-10T08:23:55;25.80;50.60
76607;DHT22;65498;50.916;4.698;2023-06-10T08:26:23;25.80;50.60
76607;DHT22;65498;50.916;4.698;2023-06-10T08:28:51;25.80;50.70
76607;DHT22;65498;50.916;4.698;2023-06-10T08:31:18;25.80;50.60
76607;DHT22;65498;50.916;4.698;2023-06-10T08:33:46;25.80;50.20
76607;DHT22;65498;50.916;4.698;2023-06-10T08:36:14;25.80;50.30
76607;DHT22;65498;50.916;4.698;2023-06-10T08:38:41;25.90;50.10
76607;DHT22;65498;50.916;4.698;2023-06-10T08:41:10;25.90;50.00
76607;DHT22;65498;50.916;4.698;2023-06-10T08:43:42;25.90;50.00
76607;DHT22;65498;50.916;4.698;2023-06-10T08:46:11;25.90;49.50
76607;DHT22;65498;50.916;4.698;2023-06-10T08:48:43;26.00;49.20
76607;DHT22;65498;50.916;4.698;2023-06-10T08:51:11;26.00;49.20
76607;DHT22;65498;50.916;4.698;2023-06-10T08:53:47;26.00;49.70
76607;DHT22;65498;50.916;4.698;2023-06-10T08:56:10;26.00;50.30
76607;DHT22;65498;50.916;4.698;2023-06-10T08:58:39;26.00;50.30
76607;DHT22;65498;50.916;4.698;2023-06-10T09:01:08;26.10;50.20
76607;DHT22;65498;50.916;4.698;2023-06-10T09:03:38;26.00;50.10
76607;DHT22;65498;50.916;4.698;2023-06-10T09:06:06;26.00;49.60
76607;DHT22;65498;50.916;4.698;2023-06-10T09:08:34;26.00;50.30
76607;DHT22;65498;50.916;4.698;2023-06-10T09:11:02;26.00;50.10
76607;DHT22;65498;50.916;4.698;2023-06-10T09:13:30;26.10;50.00
76607;DHT22;65498;50.916;4.698;2023-06-10T09:15:57;26.00;50.00
76607;DHT22;65498;50.916;4.698;2023-06-10T09:18:31;26.00;49.80
76607;DHT22;65498;50.916;4.698;2023-06-10T09:20:56;26.10;49.70
76607;DHT22;65498;50.916;4.698;2023-06-10T09:23:23;26.10;49.50
76607;DHT22;65498;50.916;4.698;2023-06-10T09:25:58;26.20;49.00
76607;DHT22;65498;50.916;4.698;2023-06-10T09:28:26;26.20;49.40
76607;DHT22;65498;50.916;4.698;2023-06-10T09:31:04;26.20;48.90
76607;DHT22;65498;50.916;4.698;2023-06-10T09:33:33;26.20;49.40
76607;DHT22;65498;50.916;4.698;2023-06-10T09:36:02;26.20;49.90
76607;DHT22;65498;50.916;4.698;2023-06-10T09:38:32;26.20;49.80
76607;DHT22;65498;50.916;4.698;2023-06-10T09:40:59;26.10;50.10
76607;DHT22;65498;50.916;4.698;2023-06-10T09:43:40;26.10;49.50
76607;DHT22;65498;50.916;4.698;2023-06-10T09:46:16;26.10;49.90
76607;DHT22;65498;50.916;4.698;2023-06-10T09:48:45;26.10;50.00
76607;DHT22;65498;50.916;4.698;2023-06-10T09:51:13;26.10;50.00
76607;DHT22;65498;50.916;4.698;2023-06-10T09:53:43;26.10;50.30
76607;DHT22;65498;50.916;4.698;2023-06-10T09:56:12;26.10;50.10
76607;DHT22;65498;50.916;4.698;2023-06-10T09:58:39;26.20;50.20
76607;DHT22;65498;50.916;4.698;2023-06-10T10:01:11;26.10;50.10
76607;DHT22;65498;50.916;4.698;2023-06-10T10:03:46;26.10;49.80
76607;DHT22;65498;50.916;4.698;2023-06-10T10:06:15;26.20;50.10
76607;DHT22;65498;50.916;4.698;2023-06-10T10:08:50;26.20;50.70
76607;DHT22;65498;50.916;4.698;2023-06-10T10:11:14;26.20;49.80
76607;DHT22;65498;50.916;4.698;2023-06-10T10:13:42;26.20;49.80
76607;DHT22;65498;50.916;4.698;2023-06-10T10:16:14;26.20;49.90
76607;DHT22;65498;50.916;4.698;2023-06-10T10:18:45;26.20;49.80
76607;DHT22;65498;50.916;4.698;2023-06-10T10:21:13;26.20;49.70
76607;DHT22;65498;50.916;4.698;2023-06-10T10:23:53;26.20;49.40
76607;DHT22;65498;50.916;4.698;2023-06-10T10:26:23;26.20;49.50
76607;DHT22;65498;50.916;4.698;2023-06-10T10:29:04;26.20;49.10
76607;DHT22;65498;50.916;4.698;2023-06-10T10:31:30;26.20;49.20
76607;DHT22;65498;50.916;4.698;2023-06-10T10:34:00;26.20;49.00
76607;DHT22;65498;50.916;4.698;2023-06-10T10:36:28;26.20;49.10
76607;DHT22;65498;50.916;4.698;2023-06-10T10:38:56;26.20;49.10
76607;DHT22;65498;50.916;4.698;2023-06-10T10:41:26;26.30;48.60
76607;DHT22;65498;50.916;4.698;2023-06-10T10:43:55;26.30;48.20
76607;DHT22;65498;50.916;4.698;2023-06-10T10:46:22;26.30;47.70
76607;DHT22;65498;50.916;4.698;2023-06-10T10:48:54;26.30;47.90
76607;DHT22;65498;50.916;4.698;2023-06-10T10:51:23;26.30;47.90
76607;DHT22;65498;50.916;4.698;2023-06-10T10:54:13;26.40;47.60
76607;DHT22;65498;50.916;4.698;2023-06-10T10:57:09;26.40;47.40
76607;DHT22;65498;50.916;4.698;2023-06-10T10:59:14;26.40;47.10
76607;DHT22;65498;50.916;4.698;2023-06-10T11:01:43;26.40;47.30
76607;DHT22;65498;50.916;4.698;2023-06-10T11:04:13;26.30;47.50
76607;DHT22;65498;50.916;4.698;2023-06-10T11:06:51;26.30;47.10
76607;DHT22;65498;50.916;4.698;2023-06-10T11:09:27;26.30;47.30
76607;DHT22;65498;50.916;4.698;2023-06-10T11:11:57;26.30;47.30
76607;DHT22;65498;50.916;4.698;2023-06-10T11:14:29;26.30;47.30
76607;DHT22;65498;50.916;4.698;2023-06-10T11:16:57;26.30;47.10
76607;DHT22;65498;50.916;4.698;2023-06-10T11:19:33;26.30;47.00
76607;DHT22;65498;50.916;4.698;2023-06-10T11:22:05;26.40;46.40
76607;DHT22;65498;50.916;4.698;2023-06-10T11:24:32;26.50;45.40
76607;DHT22;65498;50.916;4.698;2023-06-10T11:27:23;26.50;45.90
76607;DHT22;65498;50.916;4.698;2023-06-10T11:32:34;26.40;45.80
76607;DHT22;65498;50.916;4.698;2023-06-10T11:35:06;26.40;45.60
76607;DHT22;65498;50.916;4.698;2023-06-10T11:37:34;26.50;45.40
76607;DHT22;65498;50.916;4.698;2023-06-10T11:40:02;26.50;45.10
76607;DHT22;65498;50.916;4.698;2023-06-10T11:42:30;26.50;45.70
76607;DHT22;65498;50.916;4.698;2023-06-10T11:44:58;26.50;45.70
76607;DHT22;65498;50.916;4.698;2023-06-10T11:47:27;26.50;46.30
76607;DHT22;65498;50.916;4.698;2023-06-10T11:49:58;26.50;46.40
76607;DHT22;65498;50.916;4.698;2023-06-10T11:52:30;26.50;46.00
76607;DHT22;65498;50.916;4.698;2023-06-10T11:55:02;26.60;45.90
76607;DHT22;65498;50.916;4.698;2023-06-10T11:57:35;26.60;45.70
76607;DHT22;65498;50.916;4.698;2023-06-10T12:00:07;26.60;44.80
76607;DHT22;65498;50.916;4.698;2023-06-10T12:02:56;26.70;44.40
76607;DHT22;65498;50.916;4.698;2023-06-10T12:05:24;26.70;43.70
76607;DHT22;65498;50.916;4.698;2023-06-10T12:08:09;26.80;43.80
76607;DHT22;65498;50.916;4.698;2023-06-10T12:10:41;26.80;44.10
76607;DHT22;65498;50.916;4.698;2023-06-10T12:13:10;26.80;44.40
76607;DHT22;65498;50.916;4.698;2023-06-10T12:15:38;26.80;43.80
76607;DHT22;65498;50.916;4.698;2023-06-10T12:18:06;26.70;43.90
76607;DHT22;65498;50.916;4.698;2023-06-10T12:20:35;26.70;43.70
76607;DHT22;65498;50.916;4.698;2023-06-10T12:23:10;26.80;43.30
76607;DHT22;65498;50.916;4.698;2023-06-10T12:25:38;26.80;42.50
76607;DHT22;65498;50.916;4.698;2023-06-10T12:28:09;26.70;43.40
76607;DHT22;65498;50.916;4.698;2023-06-10T12:30:35;26.70;43.10
76607;DHT22;65498;50.916;4.698;2023-06-10T12:33:02;26.70;43.10
76607;DHT22;65498;50.916;4.698;2023-06-10T12:35:30;26.80;42.60
76607;DHT22;65498;50.916;4.698;2023-06-10T12:38:00;26.80;42.70
76607;DHT22;65498;50.916;4.698;2023-06-10T12:40:32;26.70;42.60
76607;DHT22;65498;50.916;4.698;2023-06-10T12:43:01;26.90;42.10
76607;DHT22;65498;50.916;4.698;2023-06-10T12:45:37;27.10;41.10
76607;DHT22;65498;50.916;4.698;2023-06-10T12:48:10;27.20;40.50
76607;DHT22;65498;50.916;4.698;2023-06-10T12:50:41;27.20;40.50
76607;DHT22;65498;50.916;4.698;2023-06-10T12:53:10;27.10;41.10
76607;DHT22;65498;50.916;4.698;2023-06-10T12:55:41;27.00;41.70
76607;DHT22;65498;50.916;4.698;2023-06-10T12:58:08;27.00;41.40
76607;DHT22;65498;50.916;4.698;2023-06-10T13:00:36;27.10;41.80
76607;DHT22;65498;50.916;4.698;2023-06-10T13:03:04;27.10;41.80
76607;DHT22;65498;50.916;4.698;2023-06-10T13:05:33;27.10;41.90
76607;DHT22;65498;50.916;4.698;2023-06-10T13:08:00;27.00;41.90
76607;DHT22;65498;50.916;4.698;2023-06-10T13:10:28;27.00;41.70
76607;DHT22;65498;50.916;4.698;2023-06-10T13:12:55;27.00;41.80
76607;DHT22;65498;50.916;4.698;2023-06-10T13:15:23;26.90;42.10
76607;DHT22;65498;50.916;4.698;2023-06-10T13:17:52;26.90;42.50
76607;DHT22;65498;50.916;4.698;2023-06-10T13:20:20;26.90;42.30
76607;DHT22;65498;50.916;4.698;2023-06-10T13:22:47;26.80;42.20
76607;DHT22;65498;50.916;4.698;2023-06-10T13:25:16;26.90;42.60
76607;DHT22;65498;50.916;4.698;2023-06-10T13:27:43;26.90;42.30
76607;DHT22;65498;50.916;4.698;2023-06-10T13:30:11;27.00;42.20
76607;DHT22;65498;50.916;4.698;2023-06-10T13:32:39;27.00;42.30
76607;DHT22;65498;50.916;4.698;2023-06-10T13:35:07;26.90;41.90
76607;DHT22;65498;50.916;4.698;2023-06-10T13:37:34;26.90;41.80
76607;DHT22;65498;50.916;4.698;2023-06-10T13:40:03;27.00;42.10
76607;DHT22;65498;50.916;4.698;2023-06-10T13:42:31;27.00;42.30
76607;DHT22;65498;50.916;4.698;2023-06-10T13:44:58;27.00;42.50
76607;DHT22;65498;50.916;4.698;2023-06-10T13:47:26;27.00;42.50
76607;DHT22;65498;50.916;4.698;2023-06-10T13:49:53;27.00;42.40
76607;DHT22;65498;50.916;4.698;2023-06-10T13:52:21;27.00;42.40
76607;DHT22;65498;50.916;4.698;2023-06-10T13:54:49;27.10;42.40
76607;DHT22;65498;50.916;4.698;2023-06-10T13:57:16;27.10;42.60
76607;DHT22;65498;50.916;4.698;2023-06-10T13:59:44;27.00;42.60
76607;DHT22;65498;50.916;4.698;2023-06-10T14:02:11;27.00;42.70
76607;DHT22;65498;50.916;4.698;2023-06-10T14:04:39;27.10;43.00
76607;DHT22;65498;50.916;4.698;2023-06-10T14:07:06;27.10;42.70
76607;DHT22;65498;50.916;4.698;2023-06-10T14:09:34;27.10;42.50
76607;DHT22;65498;50.916;4.698;2023-06-10T14:12:01;27.10;42.80
76607;DHT22;65498;50.916;4.698;2023-06-10T14:14:30;27.10;42.70
76607;DHT22;65498;50.916;4.698;2023-06-10T14:16:59;27.10;42.80
76607;DHT22;65498;50.916;4.698;2023-06-10T14:19:27;27.10;43.00
76607;DHT22;65498;50.916;4.698;2023-06-10T14:21:54;27.10;42.80
76607;DHT22;65498;50.916;4.698;2023-06-10T14:24:22;27.10;43.00
76607;DHT22;65498;50.916;4.698;2023-06-10T14:26:50;27.10;43.10
76607;DHT22;65498;50.916;4.698;2023-06-10T14:29:18;27.20;43.10
76607;DHT22;65498;50.916;4.698;2023-06-10T14:31:45;27.10;42.90
76607;DHT22;65498;50.916;4.698;2023-06-10T14:34:13;27.10;43.00
76607;DHT22;65498;50.916;4.698;2023-06-10T14:36:41;27.20;42.90
76607;DHT22;65498;50.916;4.698;2023-06-10T14:39:08;27.20;42.50
76607;DHT22;65498;50.916;4.698;2023-06-10T14:41:36;27.20;42.70
76607;DHT22;65498;50.916;4.698;2023-06-10T14:44:04;27.20;42.80
76607;DHT22;65498;50.916;4.698;2023-06-10T14:46:31;27.20;43.00
76607;DHT22;65498;50.916;4.698;2023-06-10T14:48:59;27.20;42.90
76607;DHT22;65498;50.916;4.698;2023-06-10T14:51:28;27.20;42.80
76607;DHT22;65498;50.916;4.698;2023-06-10T14:53:56;27.20;43.10
76607;DHT22;65498;50.916;4.698;2023-06-10T14:56:24;27.20;42.80
76607;DHT22;65498;50.916;4.698;2023-06-10T14:58:52;27.20;43.20
76607;DHT22;65498;50.916;4.698;2023-06-10T15:01:20;27.30;42.30
76607;DHT22;65498;50.916;4.698;2023-06-10T15:03:47;27.30;42.40
76607;DHT22;65498;50.916;4.698;2023-06-10T15:06:15;27.30;42.40
76607;DHT22;65498;50.916;4.698;2023-06-10T15:08:47;27.30;42.30
76607;DHT22;65498;50.916;4.698;2023-06-10T15:11:15;27.30;42.20
76607;DHT22;65498;50.916;4.698;2023-06-10T15:13:43;27.30;42.50
76607;DHT22;65498;50.916;4.698;2023-06-10T15:16:10;27.30;42.70
76607;DHT22;65498;50.916;4.698;2023-06-10T15:18:38;27.30;42.90
76607;DHT22;65498;50.916;4.698;2023-06-10T15:21:06;27.30;42.50
76607;DHT22;65498;50.916;4.698;2023-06-10T15:23:33;27.30;42.00
76607;DHT22;65498;50.916;4.698;2023-06-10T15:26:01;27.40;42.60
76607;DHT22;65498;50.916;4.698;2023-06-10T15:28:29;27.40;42.60
76607;DHT22;65498;50.916;4.698;2023-06-10T15:30:56;27.40;42.30
76607;DHT22;65498;50.916;4.698;2023-06-10T15:33:24;27.40;42.40
76607;DHT22;65498;50.916;4.698;2023-06-10T15:35:51;27.40;42.40
76607;DHT22;65498;50.916;4.698;2023-06-10T15:38:19;27.40;42.60
76607;DHT22;65498;50.916;4.698;2023-06-10T15:40:46;27.40;42.30
76607;DHT22;65498;50.916;4.698;2023-06-10T15:43:14;27.40;42.40
76607;DHT22;65498;50.916;4.698;2023-06-10T15:45:41;27.40;42.50
76607;DHT22;65498;50.916;4.698;2023-06-10T15:48:09;27.40;42.20